sensor_id;sensor_type;location;lat;lon;timestamp;temperature;humidity
4223;DHT22;2125;51.436;14.138;2022-12-29T00:00:09;8.00;82.90
4223;DHT22;2125;51.436;14.138;2022-12-29T00:02:36;8.10;82.50
4223;DHT22;2125;51.436;14.138;2022-12-29T00:05:03;8.10;82.50
4223;DHT22;2125;51.436;14.138;2022-12-29T00:07:30;8.20;82.30
4223;DHT22;2125;51.436;14.138;2022-12-29T00:09:56;8.30;82.40
4223;DHT22;2125;51.436;14.138;2022-12-29T00:12:24;8.20;82.30
4223;DHT22;2125;51.436;14.138;2022-12-29T00:15:11;8.20;82.20
4223;DHT22;2125;51.436;14.138;2022-12-29T00:17:55;8.30;82.10
4223;DHT22;2125;51.436;14.138;2022-12-29T00:20:21;8.30;82.00
4223;DHT22;2125;51.436;14.138;2022-12-29T00:23:10;8.30;81.90
4223;DHT22;2125;51.436;14.138;2022-12-29T00:25:55;8.40;81.90
4223;DHT22;2125;51.436;14.138;2022-12-29T00:28:40;8.40;81.80
4223;DHT22;2125;51.436;14.138;2022-12-29T00:31:24;8.40;82.00
4223;DHT22;2125;51.436;14.138;2022-12-29T00:34:08;8.40;82.30
4223;DHT22;2125;51.436;14.138;2022-12-29T00:36:53;8.40;83.20
4223;DHT22;2125;51.436;14.138;2022-12-29T00:39:19;8.20;83.80
4223;DHT22;2125;51.436;14.138;2022-12-29T00:42:04;8.20;84.30
4223;DHT22;2125;51.436;14.138;2022-12-29T00:44:50;8.10;84.70
4223;DHT22;2125;51.436;14.138;2022-12-29T00:47:16;8.00;85.20
4223;DHT22;2125;51.436;14.138;2022-12-29T00:49:43;8.00;85.30
4223;DHT22;2125;51.436;14.138;2022-12-29T00:52:10;8.00;85.60
4223;DHT22;2125;51.436;14.138;2022-12-29T00:54:38;8.00;86.00
4223;DHT22;2125;51.436;14.138;2022-12-29T00:57:06;8.00;86.20
4223;DHT22;2125;51.436;14.138;2022-12-29T00:59:34;7.90;86.30
4223;DHT22;2125;51.436;14.138;2022-12-29T01:02:03;7.90;86.60
4223;DHT22;2125;51.436;14.138;2022-12-29T01:04:29;7.90;86.70
4223;DHT22;2125;51.436;14.138;2022-12-29T01:06:56;7.80;86.90
4223;DHT22;2125;51.436;14.138;2022-12-29T01:09:23;7.80;87.00
4223;DHT22;2125;51.436;14.138;2022-12-29T01:12:08;7.80;87.00
4223;DHT22;2125;51.436;14.138;2022-12-29T01:14:35;7.80;87.00
4223;DHT22;2125;51.436;14.138;2022-12-29T01:17:05;7.70;87.20
4223;DHT22;2125;51.436;14.138;2022-12-29T01:19:31;7.70;87.10
4223;DHT22;2125;51.436;14.138;2022-12-29T01:21:58;7.70;87.10
4223;DHT22;2125;51.436;14.138;2022-12-29T01:24:25;7.70;87.10
4223;DHT22;2125;51.436;14.138;2022-12-29T01:26:52;7.60;86.90
4223;DHT22;2125;51.436;14.138;2022-12-29T01:29:19;7.60;86.90
4223;DHT22;2125;51.436;14.138;2022-12-29T01:31:46;7.60;86.80
4223;DHT22;2125;51.436;14.138;2022-12-29T01:34:16;7.60;86.70
4223;DHT22;2125;51.436;14.138;2022-12-29T01:36:43;7.60;86.60
4223;DHT22;2125;51.436;14.138;2022-12-29T01:39:09;7.60;86.50
4223;DHT22;2125;51.436;14.138;2022-12-29T01:41:36;7.60;86.40
4223;DHT22;2125;51.436;14.138;2022-12-29T01:46:48;7.60;86.30
4223;DHT22;2125;51.436;14.138;2022-12-29T01:49:19;7.60;86.10
4223;DHT22;2125;51.436;14.138;2022-12-29T01:51:49;7.60;86.20
4223;DHT22;2125;51.436;14.138;2022-12-29T01:54:20;7.60;86.00
4223;DHT22;2125;51.436;14.138;2022-12-29T01:56:50;7.60;86.10
4223;DHT22;2125;51.436;14.138;2022-12-29T01:59:21;7.60;85.90
4223;DHT22;2125;51.436;14.138;2022-12-29T02:01:49;7.60;85.90
4223;DHT22;2125;51.436;14.138;2022-12-29T02:04:17;7.60;85.90
4223;DHT22;2125;51.436;14.138;2022-12-29T02:06:49;7.60;85.80
4223;DHT22;2125;51.436;14.138;2022-12-29T02:09:17;7.60;85.80
4223;DHT22;2125;51.436;14.138;2022-12-29T02:11:44;7.60;85.60
4223;DHT22;2125;51.436;14.138;2022-12-29T02:14:13;7.60;85.50
4223;DHT22;2125;51.436;14.138;2022-12-29T02:16:53;7.60;85.30
4223;DHT22;2125;51.436;14.138;2022-12-29T02:19:54;7.60;85.20
4223;DHT22;2125;51.436;14.138;2022-12-29T02:22:29;7.60;85.20
4223;DHT22;2125;51.436;14.138;2022-12-29T02:25:19;7.60;85.00
4223;DHT22;2125;51.436;14.138;2022-12-29T02:28:02;7.60;84.90
4223;DHT22;2125;51.436;14.138;2022-12-29T02:30:48;7.60;84.80
4223;DHT22;2125;51.436;14.138;2022-12-29T02:33:24;7.60;84.70
4223;DHT22;2125;51.436;14.138;2022-12-29T02:36:00;7.60;84.80
4223;DHT22;2125;51.436;14.138;2022-12-29T02:38:47;7.70;84.90
4223;DHT22;2125;51.436;14.138;2022-12-29T02:41:19;7.70;84.90
4223;DHT22;2125;51.436;14.138;2022-12-29T02:43:51;7.70;85.10
4223;DHT22;2125;51.436;14.138;2022-12-29T02:46:24;7.70;85.40
4223;DHT22;2125;51.436;14.138;2022-12-29T02:48:58;7.80;85.40
4223;DHT22;2125;51.436;14.138;2022-12-29T02:51:31;7.80;85.70
4223;DHT22;2125;51.436;14.138;2022-12-29T02:53:59;7.90;85.80
4223;DHT22;2125;51.436;14.138;2022-12-29T02:56:44;7.90;85.90
4223;DHT22;2125;51.436;14.138;2022-12-29T02:59:12;7.90;86.00
4223;DHT22;2125;51.436;14.138;2022-12-29T03:01:55;7.90;86.10
4223;DHT22;2125;51.436;14.138;2022-12-29T03:04:55;7.90;86.10
4223;DHT22;2125;51.436;14.138;2022-12-29T03:07:35;8.00;86.10
4223;DHT22;2125;51.436;14.138;2022-12-29T03:10:15;8.00;86.10
4223;DHT22;2125;51.436;14.138;2022-12-29T03:12:48;8.10;86.30
4223;DHT22;2125;51.436;14.138;2022-12-29T03:15:41;8.10;86.40
4223;DHT22;2125;51.436;14.138;2022-12-29T03:18:34;8.10;86.50
4223;DHT22;2125;51.436;14.138;2022-12-29T03:21:07;8.10;86.50
4223;DHT22;2125;51.436;14.138;2022-12-29T03:23:36;8.10;86.50
4223;DHT22;2125;51.436;14.138;2022-12-29T03:26:08;8.20;86.50
4223;DHT22;2125;51.436;14.138;2022-12-29T03:28:38;8.20;86.60
4223;DHT22;2125;51.436;14.138;2022-12-29T03:31:06;8.20;86.60
4223;DHT22;2125;51.436;14.138;2022-12-29T03:33:37;8.30;86.50
4223;DHT22;2125;51.436;14.138;2022-12-29T03:36:07;8.30;86.60
4223;DHT22;2125;51.436;14.138;2022-12-29T03:38:37;8.40;86.60
4223;DHT22;2125;51.436;14.138;2022-12-29T03:41:09;8.40;86.60
4223;DHT22;2125;51.436;14.138;2022-12-29T03:43:37;8.40;86.70
4223;DHT22;2125;51.436;14.138;2022-12-29T03:46:05;8.50;86.70
4223;DHT22;2125;51.436;14.138;2022-12-29T03:48:32;8.50;86.70
4223;DHT22;2125;51.436;14.138;2022-12-29T03:51:00;8.50;86.60
4223;DHT22;2125;51.436;14.138;2022-12-29T03:53:26;8.50;86.70
4223;DHT22;2125;51.436;14.138;2022-12-29T03:55:53;8.50;86.70
4223;DHT22;2125;51.436;14.138;2022-12-29T03:58:19;8.50;86.70
4223;DHT22;2125;51.436;14.138;2022-12-29T04:00:46;8.50;86.70
4223;DHT22;2125;51.436;14.138;2022-12-29T04:03:12;8.60;86.70
4223;DHT22;2125;51.436;14.138;2022-12-29T04:05:39;8.60;86.70
4223;DHT22;2125;51.436;14.138;2022-12-29T04:08:07;8.60;86.60
4223;DHT22;2125;51.436;14.138;2022-12-29T04:10:34;8.70;86.50
4223;DHT22;2125;51.436;14.138;2022-12-29T04:13:03;8.70;86.50
4223;DHT22;2125;51.436;14.138;2022-12-29T04:15:29;8.70;86.50
4223;DHT22;2125;51.436;14.138;2022-12-29T04:17:56;8.80;86.50
4223;DHT22;2125;51.436;14.138;2022-12-29T04:20:22;8.80;86.40
4223;DHT22;2125;51.436;14.138;2022-12-29T04:23:08;8.80;86.40
4223;DHT22;2125;51.436;14.138;2022-12-29T04:25:35;8.90;86.40
4223;DHT22;2125;51.436;14.138;2022-12-29T04:28:01;8.90;86.40
4223;DHT22;2125;51.436;14.138;2022-12-29T04:30:28;8.90;86.40
4223;DHT22;2125;51.436;14.138;2022-12-29T04:32:54;8.90;86.30
4223;DHT22;2125;51.436;14.138;2022-12-29T04:35:21;9.00;86.30
4223;DHT22;2125;51.436;14.138;2022-12-29T04:37:48;9.00;86.20
4223;DHT22;2125;51.436;14.138;2022-12-29T04:40:16;9.00;86.10
4223;DHT22;2125;51.436;14.138;2022-12-29T04:42:42;9.00;86.10
4223;DHT22;2125;51.436;14.138;2022-12-29T04:45:10;9.00;86.00
4223;DHT22;2125;51.436;14.138;2022-12-29T04:47:37;9.10;85.90
4223;DHT22;2125;51.436;14.138;2022-12-29T04:50:04;9.10;86.00
4223;DHT22;2125;51.436;14.138;2022-12-29T04:52:30;9.10;85.80
4223;DHT22;2125;51.436;14.138;2022-12-29T04:54:57;9.10;85.70
4223;DHT22;2125;51.436;14.138;2022-12-29T04:57:25;9.20;85.50
4223;DHT22;2125;51.436;14.138;2022-12-29T04:59:52;9.20;85.40
4223;DHT22;2125;51.436;14.138;2022-12-29T05:02:19;9.20;85.40
4223;DHT22;2125;51.436;14.138;2022-12-29T05:04:45;9.20;85.20
4223;DHT22;2125;51.436;14.138;2022-12-29T05:07:12;9.20;85.20
4223;DHT22;2125;51.436;14.138;2022-12-29T05:09:38;9.20;85.00
4223;DHT22;2125;51.436;14.138;2022-12-29T05:12:05;9.20;85.10
4223;DHT22;2125;51.436;14.138;2022-12-29T05:14:36;9.20;85.10
4223;DHT22;2125;51.436;14.138;2022-12-29T05:17:03;9.20;85.20
4223;DHT22;2125;51.436;14.138;2022-12-29T05:19:29;9.10;85.50
4223;DHT22;2125;51.436;14.138;2022-12-29T05:21:56;9.10;85.90
4223;DHT22;2125;51.436;14.138;2022-12-29T05:24:23;9.00;86.10
4223;DHT22;2125;51.436;14.138;2022-12-29T05:26:49;8.90;86.30
4223;DHT22;2125;51.436;14.138;2022-12-29T05:29:16;8.80;86.50
4223;DHT22;2125;51.436;14.138;2022-12-29T05:31:44;8.70;86.60
4223;DHT22;2125;51.436;14.138;2022-12-29T05:34:11;8.70;86.70
4223;DHT22;2125;51.436;14.138;2022-12-29T05:36:38;8.70;86.70
4223;DHT22;2125;51.436;14.138;2022-12-29T05:39:05;8.60;86.80
4223;DHT22;2125;51.436;14.138;2022-12-29T05:41:33;8.60;86.80
4223;DHT22;2125;51.436;14.138;2022-12-29T05:44:00;8.50;86.60
4223;DHT22;2125;51.436;14.138;2022-12-29T05:46:26;8.50;86.60
4223;DHT22;2125;51.436;14.138;2022-12-29T05:48:54;8.50;86.60
4223;DHT22;2125;51.436;14.138;2022-12-29T05:51:21;8.50;86.40
4223;DHT22;2125;51.436;14.138;2022-12-29T05:53:48;8.50;86.30
4223;DHT22;2125;51.436;14.138;2022-12-29T05:56:14;8.50;86.20
4223;DHT22;2125;51.436;14.138;2022-12-29T05:58:41;8.50;86.20
4223;DHT22;2125;51.436;14.138;2022-12-29T06:01:07;8.50;86.10
4223;DHT22;2125;51.436;14.138;2022-12-29T06:03:34;8.50;86.10
4223;DHT22;2125;51.436;14.138;2022-12-29T06:06:02;8.50;86.20
4223;DHT22;2125;51.436;14.138;2022-12-29T06:08:29;8.40;86.20
4223;DHT22;2125;51.436;14.138;2022-12-29T06:10:55;8.40;86.20
4223;DHT22;2125;51.436;14.138;2022-12-29T06:13:22;8.30;86.10
4223;DHT22;2125;51.436;14.138;2022-12-29T06:15:49;8.20;86.00
4223;DHT22;2125;51.436;14.138;2022-12-29T06:18:16;8.20;85.90
4223;DHT22;2125;51.436;14.138;2022-12-29T06:20:43;8.10;85.70
4223;DHT22;2125;51.436;14.138;2022-12-29T06:23:11;8.20;85.50
4223;DHT22;2125;51.436;14.138;2022-12-29T06:25:38;8.20;85.40
4223;DHT22;2125;51.436;14.138;2022-12-29T06:28:05;8.20;85.40
4223;DHT22;2125;51.436;14.138;2022-12-29T06:30:32;8.20;85.50
4223;DHT22;2125;51.436;14.138;2022-12-29T06:33:00;8.20;85.50
4223;DHT22;2125;51.436;14.138;2022-12-29T06:35:26;8.20;85.50
4223;DHT22;2125;51.436;14.138;2022-12-29T06:37:53;8.20;85.60
4223;DHT22;2125;51.436;14.138;2022-12-29T06:40:21;8.20;85.70
4223;DHT22;2125;51.436;14.138;2022-12-29T06:42:48;8.20;85.80
4223;DHT22;2125;51.436;14.138;2022-12-29T06:45:15;8.10;85.80
4223;DHT22;2125;51.436;14.138;2022-12-29T06:47:41;8.10;85.90
4223;DHT22;2125;51.436;14.138;2022-12-29T06:50:08;8.10;85.90
4223;DHT22;2125;51.436;14.138;2022-12-29T06:52:35;8.00;86.00
4223;DHT22;2125;51.436;14.138;2022-12-29T06:55:02;8.00;86.10
4223;DHT22;2125;51.436;14.138;2022-12-29T06:57:30;7.90;86.20
4223;DHT22;2125;51.436;14.138;2022-12-29T06:59:56;7.80;86.20
4223;DHT22;2125;51.436;14.138;2022-12-29T07:02:23;7.80;86.20
4223;DHT22;2125;51.436;14.138;2022-12-29T07:04:50;7.70;86.20
4223;DHT22;2125;51.436;14.138;2022-12-29T07:07:17;7.70;86.10
4223;DHT22;2125;51.436;14.138;2022-12-29T07:09:44;7.70;86.10
4223;DHT22;2125;51.436;14.138;2022-12-29T07:12:10;7.70;86.10
4223;DHT22;2125;51.436;14.138;2022-12-29T07:14:38;7.60;86.10
4223;DHT22;2125;51.436;14.138;2022-12-29T07:17:05;7.60;86.10
4223;DHT22;2125;51.436;14.138;2022-12-29T07:19:32;7.60;86.00
4223;DHT22;2125;51.436;14.138;2022-12-29T07:21:59;7.60;86.00
4223;DHT22;2125;51.436;14.138;2022-12-29T07:24:26;7.60;86.10
4223;DHT22;2125;51.436;14.138;2022-12-29T07:26:53;7.70;86.10
4223;DHT22;2125;51.436;14.138;2022-12-29T07:29:19;7.70;86.20
4223;DHT22;2125;51.436;14.138;2022-12-29T07:31:47;7.70;86.30
4223;DHT22;2125;51.436;14.138;2022-12-29T07:34:14;7.70;86.40
4223;DHT22;2125;51.436;14.138;2022-12-29T07:36:41;7.70;86.40
4223;DHT22;2125;51.436;14.138;2022-12-29T07:39:07;7.80;86.40
4223;DHT22;2125;51.436;14.138;2022-12-29T07:41:34;7.80;86.50
4223;DHT22;2125;51.436;14.138;2022-12-29T07:44:01;7.80;86.60
4223;DHT22;2125;51.436;14.138;2022-12-29T07:46:27;7.80;86.50
4223;DHT22;2125;51.436;14.138;2022-12-29T07:48:55;7.90;86.70
4223;DHT22;2125;51.436;14.138;2022-12-29T07:51:23;7.90;86.70
4223;DHT22;2125;51.436;14.138;2022-12-29T07:53:49;7.90;86.70
4223;DHT22;2125;51.436;14.138;2022-12-29T07:56:16;7.90;86.70
4223;DHT22;2125;51.436;14.138;2022-12-29T07:58:43;7.90;86.70
4223;DHT22;2125;51.436;14.138;2022-12-29T08:01:09;8.10;86.80
4223;DHT22;2125;51.436;14.138;2022-12-29T08:03:36;8.10;86.80
4223;DHT22;2125;51.436;14.138;2022-12-29T08:06:05;8.10;86.80
4223;DHT22;2125;51.436;14.138;2022-12-29T08:08:31;8.10;86.80
4223;DHT22;2125;51.436;14.138;2022-12-29T08:10:58;8.20;86.80
4223;DHT22;2125;51.436;14.138;2022-12-29T08:13:24;8.20;86.70
4223;DHT22;2125;51.436;14.138;2022-12-29T08:15:51;8.40;86.70
4223;DHT22;2125;51.436;14.138;2022-12-29T08:18:18;8.50;86.70
4223;DHT22;2125;51.436;14.138;2022-12-29T08:20:44;8.60;86.80
4223;DHT22;2125;51.436;14.138;2022-12-29T08:23:12;8.70;86.70
4223;DHT22;2125;51.436;14.138;2022-12-29T08:25:39;8.90;86.70
4223;DHT22;2125;51.436;14.138;2022-12-29T08:28:07;9.00;86.60
4223;DHT22;2125;51.436;14.138;2022-12-29T08:30:33;9.20;86.60
4223;DHT22;2125;51.436;14.138;2022-12-29T08:33:00;9.30;86.50
4223;DHT22;2125;51.436;14.138;2022-12-29T08:35:27;9.40;86.30
4223;DHT22;2125;51.436;14.138;2022-12-29T08:37:53;9.50;86.10
4223;DHT22;2125;51.436;14.138;2022-12-29T08:40:21;9.70;85.90
4223;DHT22;2125;51.436;14.138;2022-12-29T08:42:48;9.80;85.50
4223;DHT22;2125;51.436;14.138;2022-12-29T08:45:14;9.90;85.30
4223;DHT22;2125;51.436;14.138;2022-12-29T08:47:41;10.00;85.20
4223;DHT22;2125;51.436;14.138;2022-12-29T08:50:08;10.00;85.10
4223;DHT22;2125;51.436;14.138;2022-12-29T08:52:34;10.00;85.10
4223;DHT22;2125;51.436;14.138;2022-12-29T08:55:04;10.00;85.10
4223;DHT22;2125;51.436;14.138;2022-12-29T08:57:32;10.10;85.00
4223;DHT22;2125;51.436;14.138;2022-12-29T08:59:58;10.10;85.10
4223;DHT22;2125;51.436;14.138;2022-12-29T09:02:25;10.10;85.00
4223;DHT22;2125;51.436;14.138;2022-12-29T09:04:51;10.20;84.90
4223;DHT22;2125;51.436;14.138;2022-12-29T09:07:18;10.10;84.70
4223;DHT22;2125;51.436;14.138;2022-12-29T09:09:45;10.20;84.80
4223;DHT22;2125;51.436;14.138;2022-12-29T09:12:11;10.20;84.60
4223;DHT22;2125;51.436;14.138;2022-12-29T09:14:39;10.20;84.60
4223;DHT22;2125;51.436;14.138;2022-12-29T09:17:08;10.10;84.60
4223;DHT22;2125;51.436;14.138;2022-12-29T09:19:52;10.10;84.40
4223;DHT22;2125;51.436;14.138;2022-12-29T09:22:19;10.10;84.40
4223;DHT22;2125;51.436;14.138;2022-12-29T09:24:45;10.10;84.40
4223;DHT22;2125;51.436;14.138;2022-12-29T09:27:12;10.20;84.20
4223;DHT22;2125;51.436;14.138;2022-12-29T09:29:40;10.20;84.20
4223;DHT22;2125;51.436;14.138;2022-12-29T09:32:06;10.40;83.80
4223;DHT22;2125;51.436;14.138;2022-12-29T09:34:33;10.40;83.80
4223;DHT22;2125;51.436;14.138;2022-12-29T09:37:00;10.50;83.30
4223;DHT22;2125;51.436;14.138;2022-12-29T09:39:27;10.70;83.00
4223;DHT22;2125;51.436;14.138;2022-12-29T09:42:00;10.80;82.80
4223;DHT22;2125;51.436;14.138;2022-12-29T09:44:35;11.00;81.90
4223;DHT22;2125;51.436;14.138;2022-12-29T09:47:09;11.00;82.10
4223;DHT22;2125;51.436;14.138;2022-12-29T09:49:41;11.00;82.00
4223;DHT22;2125;51.436;14.138;2022-12-29T09:52:14;11.00;82.20
4223;DHT22;2125;51.436;14.138;2022-12-29T09:54:45;11.10;81.70
4223;DHT22;2125;51.436;14.138;2022-12-29T09:57:18;11.10;81.70
4223;DHT22;2125;51.436;14.138;2022-12-29T09:59:49;11.10;81.30
4223;DHT22;2125;51.436;14.138;2022-12-29T10:02:31;11.00;81.40
4223;DHT22;2125;51.436;14.138;2022-12-29T10:04:58;11.00;81.70
4223;DHT22;2125;51.436;14.138;2022-12-29T10:07:33;11.00;81.50
4223;DHT22;2125;51.436;14.138;2022-12-29T10:12:57;11.00;81.60
4223;DHT22;2125;51.436;14.138;2022-12-29T10:15:36;11.00;81.80
4223;DHT22;2125;51.436;14.138;2022-12-29T10:18:18;11.10;81.30
4223;DHT22;2125;51.436;14.138;2022-12-29T10:20:51;11.30;81.90
4223;DHT22;2125;51.436;14.138;2022-12-29T10:23:27;11.50;80.90
4223;DHT22;2125;51.436;14.138;2022-12-29T10:25:57;11.70;80.00
4223;DHT22;2125;51.436;14.138;2022-12-29T10:28:33;11.70;79.40
4223;DHT22;2125;51.436;14.138;2022-12-29T10:31:01;11.70;79.90
4223;DHT22;2125;51.436;14.138;2022-12-29T10:33:34;11.70;79.60
4223;DHT22;2125;51.436;14.138;2022-12-29T10:36:13;11.70;79.80
4223;DHT22;2125;51.436;14.138;2022-12-29T10:38:47;11.70;79.70
4223;DHT22;2125;51.436;14.138;2022-12-29T10:41:18;11.80;79.50
4223;DHT22;2125;51.436;14.138;2022-12-29T10:43:48;12.00;78.70
4223;DHT22;2125;51.436;14.138;2022-12-29T10:46:18;12.00;79.80
4223;DHT22;2125;51.436;14.138;2022-12-29T10:48:47;12.00;79.00
4223;DHT22;2125;51.436;14.138;2022-12-29T10:51:21;12.00;79.20
4223;DHT22;2125;51.436;14.138;2022-12-29T10:53:51;12.10;78.90
4223;DHT22;2125;51.436;14.138;2022-12-29T10:56:27;12.10;78.80
4223;DHT22;2125;51.436;14.138;2022-12-29T10:58:56;12.20;78.50
4223;DHT22;2125;51.436;14.138;2022-12-29T11:01:27;12.20;77.80
4223;DHT22;2125;51.436;14.138;2022-12-29T11:04:04;12.30;77.50
4223;DHT22;2125;51.436;14.138;2022-12-29T11:06:38;12.30;77.70
4223;DHT22;2125;51.436;14.138;2022-12-29T11:09:12;12.30;77.40
4223;DHT22;2125;51.436;14.138;2022-12-29T11:11:41;12.30;76.90
4223;DHT22;2125;51.436;14.138;2022-12-29T11:14:12;12.30;77.50
4223;DHT22;2125;51.436;14.138;2022-12-29T11:16:40;12.30;77.30
4223;DHT22;2125;51.436;14.138;2022-12-29T11:19:21;12.30;77.00
4223;DHT22;2125;51.436;14.138;2022-12-29T11:21:48;12.40;78.10
4223;DHT22;2125;51.436;14.138;2022-12-29T11:24:22;12.50;76.30
4223;DHT22;2125;51.436;14.138;2022-12-29T11:26:50;12.60;77.30
4223;DHT22;2125;51.436;14.138;2022-12-29T11:29:24;12.60;78.00
4223;DHT22;2125;51.436;14.138;2022-12-29T11:31:52;12.50;77.40
4223;DHT22;2125;51.436;14.138;2022-12-29T11:34:23;12.50;77.10
4223;DHT22;2125;51.436;14.138;2022-12-29T11:36:53;12.50;77.10
4223;DHT22;2125;51.436;14.138;2022-12-29T11:39:30;12.40;77.10
4223;DHT22;2125;51.436;14.138;2022-12-29T11:41:59;12.50;77.60
4223;DHT22;2125;51.436;14.138;2022-12-29T11:44:29;12.40;77.60
4223;DHT22;2125;51.436;14.138;2022-12-29T11:46:59;12.40;76.80
4223;DHT22;2125;51.436;14.138;2022-12-29T11:49:27;12.40;77.40
4223;DHT22;2125;51.436;14.138;2022-12-29T11:51:54;12.40;77.40
4223;DHT22;2125;51.436;14.138;2022-12-29T11:54:23;12.40;77.90
4223;DHT22;2125;51.436;14.138;2022-12-29T11:56:51;12.50;77.20
4223;DHT22;2125;51.436;14.138;2022-12-29T11:59:43;12.50;77.20
4223;DHT22;2125;51.436;14.138;2022-12-29T12:05:22;12.60;76.50
4223;DHT22;2125;51.436;14.138;2022-12-29T12:07:54;12.70;77.20
4223;DHT22;2125;51.436;14.138;2022-12-29T12:10:29;12.70;76.20
4223;DHT22;2125;51.436;14.138;2022-12-29T12:13:02;12.70;76.60
4223;DHT22;2125;51.436;14.138;2022-12-29T12:15:34;12.70;76.40
4223;DHT22;2125;51.436;14.138;2022-12-29T12:18:05;12.70;75.80
4223;DHT22;2125;51.436;14.138;2022-12-29T12:20:42;12.80;76.20
4223;DHT22;2125;51.436;14.138;2022-12-29T12:23:22;12.80;76.60
4223;DHT22;2125;51.436;14.138;2022-12-29T12:25:57;12.80;76.20
4223;DHT22;2125;51.436;14.138;2022-12-29T12:28:32;12.90;76.00
4223;DHT22;2125;51.436;14.138;2022-12-29T12:31:01;12.90;76.10
4223;DHT22;2125;51.436;14.138;2022-12-29T12:33:32;13.00;77.40
4223;DHT22;2125;51.436;14.138;2022-12-29T12:36:14;13.00;76.40
4223;DHT22;2125;51.436;14.138;2022-12-29T12:38:51;13.00;76.90
4223;DHT22;2125;51.436;14.138;2022-12-29T12:41:25;12.90;76.30
4223;DHT22;2125;51.436;14.138;2022-12-29T12:44:01;12.70;77.90
4223;DHT22;2125;51.436;14.138;2022-12-29T12:46:50;12.60;77.70
4223;DHT22;2125;51.436;14.138;2022-12-29T12:49:51;12.60;77.70
4223;DHT22;2125;51.436;14.138;2022-12-29T12:52:29;12.60;77.30
4223;DHT22;2125;51.436;14.138;2022-12-29T12:55:22;12.60;77.60
4223;DHT22;2125;51.436;14.138;2022-12-29T12:58:02;12.60;77.40
4223;DHT22;2125;51.436;14.138;2022-12-29T13:00:39;12.50;77.90
4223;DHT22;2125;51.436;14.138;2022-12-29T13:03:13;12.50;78.20
4223;DHT22;2125;51.436;14.138;2022-12-29T13:05:50;12.50;78.10
4223;DHT22;2125;51.436;14.138;2022-12-29T13:08:50;12.40;78.60
4223;DHT22;2125;51.436;14.138;2022-12-29T13:11:31;12.50;78.30
4223;DHT22;2125;51.436;14.138;2022-12-29T13:14:16;12.50;77.80
4223;DHT22;2125;51.436;14.138;2022-12-29T13:16:48;12.60;77.60
4223;DHT22;2125;51.436;14.138;2022-12-29T13:19:27;12.60;77.80
4223;DHT22;2125;51.436;14.138;2022-12-29T13:22:05;12.50;77.30
4223;DHT22;2125;51.436;14.138;2022-12-29T13:24:47;12.50;78.10
4223;DHT22;2125;51.436;14.138;2022-12-29T13:27:23;12.40;77.90
4223;DHT22;2125;51.436;14.138;2022-12-29T13:29:59;12.40;78.50
4223;DHT22;2125;51.436;14.138;2022-12-29T13:32:35;12.30;78.30
4223;DHT22;2125;51.436;14.138;2022-12-29T13:35:34;12.30;77.60
4223;DHT22;2125;51.436;14.138;2022-12-29T13:38:10;12.30;77.60
4223;DHT22;2125;51.436;14.138;2022-12-29T13:40:43;12.30;78.10
4223;DHT22;2125;51.436;14.138;2022-12-29T13:43:11;12.20;78.70
4223;DHT22;2125;51.436;14.138;2022-12-29T13:45:39;12.20;78.00
4223;DHT22;2125;51.436;14.138;2022-12-29T13:48:12;12.20;78.50
4223;DHT22;2125;51.436;14.138;2022-12-29T13:50:43;12.10;77.90
4223;DHT22;2125;51.436;14.138;2022-12-29T13:53:19;12.10;78.40
4223;DHT22;2125;51.436;14.138;2022-12-29T13:55:53;12.00;78.30
4223;DHT22;2125;51.436;14.138;2022-12-29T13:58:27;12.00;78.70
4223;DHT22;2125;51.436;14.138;2022-12-29T14:01:02;12.00;77.80
4223;DHT22;2125;51.436;14.138;2022-12-29T14:03:55;12.20;77.20
4223;DHT22;2125;51.436;14.138;2022-12-29T14:06:24;12.10;77.60
4223;DHT22;2125;51.436;14.138;2022-12-29T14:08:54;12.10;78.40
4223;DHT22;2125;51.436;14.138;2022-12-29T14:11:24;12.00;78.60
4223;DHT22;2125;51.436;14.138;2022-12-29T14:13:56;11.90;79.00
4223;DHT22;2125;51.436;14.138;2022-12-29T14:16:29;11.80;79.30
4223;DHT22;2125;51.436;14.138;2022-12-29T14:19:02;11.90;79.00
4223;DHT22;2125;51.436;14.138;2022-12-29T14:21:30;11.90;78.80
4223;DHT22;2125;51.436;14.138;2022-12-29T14:24:38;11.90;79.30
4223;DHT22;2125;51.436;14.138;2022-12-29T14:27:50;11.80;79.40
4223;DHT22;2125;51.436;14.138;2022-12-29T14:30:47;11.70;79.70
4223;DHT22;2125;51.436;14.138;2022-12-29T14:33:15;11.90;78.40
4223;DHT22;2125;51.436;14.138;2022-12-29T14:35:44;11.90;78.70
4223;DHT22;2125;51.436;14.138;2022-12-29T14:38:32;11.80;78.40
4223;DHT22;2125;51.436;14.138;2022-12-29T14:41:33;11.70;79.20
4223;DHT22;2125;51.436;14.138;2022-12-29T14:44:09;11.70;78.90
4223;DHT22;2125;51.436;14.138;2022-12-29T14:46:46;11.70;79.40
4223;DHT22;2125;51.436;14.138;2022-12-29T14:49:17;11.70;78.90
4223;DHT22;2125;51.436;14.138;2022-12-29T14:51:46;11.90;78.30
4223;DHT22;2125;51.436;14.138;2022-12-29T14:54:42;11.90;78.00
4223;DHT22;2125;51.436;14.138;2022-12-29T14:57:18;11.90;78.40
4223;DHT22;2125;51.436;14.138;2022-12-29T14:59:46;11.90;78.30
4223;DHT22;2125;51.436;14.138;2022-12-29T15:02:17;11.90;78.40
4223;DHT22;2125;51.436;14.138;2022-12-29T15:04:46;11.80;78.70
4223;DHT22;2125;51.436;14.138;2022-12-29T15:07:15;11.80;78.90
4223;DHT22;2125;51.436;14.138;2022-12-29T15:09:54;11.80;79.30
4223;DHT22;2125;51.436;14.138;2022-12-29T15:12:37;11.80;79.90
4223;DHT22;2125;51.436;14.138;2022-12-29T15:15:18;11.70;79.90
4223;DHT22;2125;51.436;14.138;2022-12-29T15:17:45;11.70;80.40
4223;DHT22;2125;51.436;14.138;2022-12-29T15:20:25;11.60;80.80
4223;DHT22;2125;51.436;14.138;2022-12-29T15:22:55;11.60;81.10
4223;DHT22;2125;51.436;14.138;2022-12-29T15:25:24;11.70;81.40
4223;DHT22;2125;51.436;14.138;2022-12-29T15:27:55;11.60;81.00
4223;DHT22;2125;51.436;14.138;2022-12-29T15:30:23;11.60;81.10
4223;DHT22;2125;51.436;14.138;2022-12-29T15:32:50;11.50;81.30
4223;DHT22;2125;51.436;14.138;2022-12-29T15:35:31;11.40;81.80
4223;DHT22;2125;51.436;14.138;2022-12-29T15:37:59;11.30;82.20
4223;DHT22;2125;51.436;14.138;2022-12-29T15:40:28;11.30;82.40
4223;DHT22;2125;51.436;14.138;2022-12-29T15:43:21;11.20;82.40
4223;DHT22;2125;51.436;14.138;2022-12-29T15:45:50;11.20;82.80
4223;DHT22;2125;51.436;14.138;2022-12-29T15:48:20;11.10;83.00
4223;DHT22;2125;51.436;14.138;2022-12-29T15:50:48;11.10;83.00
4223;DHT22;2125;51.436;14.138;2022-12-29T15:53:20;11.10;83.10
4223;DHT22;2125;51.436;14.138;2022-12-29T15:55:50;11.00;83.30
4223;DHT22;2125;51.436;14.138;2022-12-29T15:58:21;10.90;83.40
4223;DHT22;2125;51.436;14.138;2022-12-29T16:00:49;10.90;83.50
4223;DHT22;2125;51.436;14.138;2022-12-29T16:03:18;10.90;83.60
4223;DHT22;2125;51.436;14.138;2022-12-29T16:05:51;10.80;83.60
4223;DHT22;2125;51.436;14.138;2022-12-29T16:08:31;10.80;83.80
4223;DHT22;2125;51.436;14.138;2022-12-29T16:11:00;10.70;83.80
4223;DHT22;2125;51.436;14.138;2022-12-29T16:13:37;10.70;83.90
4223;DHT22;2125;51.436;14.138;2022-12-29T16:16:09;10.70;83.90
4223;DHT22;2125;51.436;14.138;2022-12-29T16:18:39;10.60;84.20
4223;DHT22;2125;51.436;14.138;2022-12-29T16:21:16;10.60;84.20
4223;DHT22;2125;51.436;14.138;2022-12-29T16:23:48;10.60;84.20
4223;DHT22;2125;51.436;14.138;2022-12-29T16:26:17;10.50;84.30
4223;DHT22;2125;51.436;14.138;2022-12-29T16:28:47;10.40;84.50
4223;DHT22;2125;51.436;14.138;2022-12-29T16:31:20;10.40;84.40